createdAt,value
2016-12-31T00:00:03.105Z,17.73
2016-12-31T00:00:43.748Z,17.79
2016-12-31T00:01:24.375Z,17.81
2016-12-31T00:02:05.008Z,17.84
2016-12-31T00:02:45.646Z,17.73
2016-12-31T00:03:26.278Z,17.7
2016-12-31T00:04:06.952Z,17.73
2016-12-31T00:04:47.587Z,17.73
2016-12-31T00:05:28.219Z,17.84
2016-12-31T00:06:08.860Z,17.74
2016-12-31T00:06:49.479Z,17.73
2016-12-31T00:07:30.119Z,17.76
2016-12-31T00:08:10.752Z,17.76
2016-12-31T00:08:51.465Z,17.81
2016-12-31T00:09:32.132Z,17.76
2016-12-31T00:10:12.774Z,17.78
2016-12-31T00:10:53.407Z,17.74
2016-12-31T00:11:34.051Z,17.73
2016-12-31T00:12:14.693Z,17.81
2016-12-31T00:12:55.325Z,17.66
2016-12-31T00:13:35.983Z,17.78
2016-12-31T00:14:16.618Z,17.7
2016-12-31T00:14:57.322Z,17.81
2016-12-31T00:15:37.955Z,17.71
2016-12-31T00:16:18.590Z,17.73
2016-12-31T00:16:59.247Z,17.78
2016-12-31T00:17:39.894Z,17.78
2016-12-31T00:18:20.533Z,17.74
2016-12-31T00:19:01.252Z,17.78
2016-12-31T00:19:41.878Z,17.73
2016-12-31T00:20:22.525Z,17.78
2016-12-31T00:21:03.239Z,17.73
2016-12-31T00:21:43.901Z,17.76
2016-12-31T00:22:24.549Z,17.79
2016-12-31T00:23:05.296Z,17.81
2016-12-31T00:23:46.023Z,17.74
2016-12-31T00:24:26.661Z,17.69
2016-12-31T00:25:07.305Z,17.71
2016-12-31T00:25:48.002Z,17.73
2016-12-31T00:26:28.648Z,17.74
2016-12-31T00:27:09.278Z,17.74
2016-12-31T00:27:49.984Z,17.66
2016-12-31T00:28:30.629Z,17.73
2016-12-31T00:29:11.259Z,17.63
2016-12-31T00:29:51.986Z,17.71
2016-12-31T00:30:32.624Z,17.74
2016-12-31T00:31:13.256Z,17.63
2016-12-31T00:31:53.914Z,17.67
2016-12-31T00:32:34.552Z,17.67
2016-12-31T00:33:15.191Z,17.57
2016-12-31T00:33:55.859Z,17.69
2016-12-31T00:34:36.498Z,17.67
2016-12-31T00:35:17.134Z,17.69
2016-12-31T00:35:57.772Z,17.57
2016-12-31T00:36:38.405Z,17.69
2016-12-31T00:37:19.044Z,17.59
2016-12-31T00:37:59.689Z,17.62
2016-12-31T00:38:40.323Z,17.64
2016-12-31T00:39:20.951Z,17.63
2016-12-31T00:40:01.583Z,17.62
2016-12-31T00:40:42.249Z,17.64
2016-12-31T00:41:22.886Z,17.64
2016-12-31T00:42:03.531Z,17.62
2016-12-31T00:42:44.185Z,17.59
2016-12-31T00:43:24.837Z,17.63
2016-12-31T00:44:05.469Z,17.66
2016-12-31T00:44:46.097Z,17.64
2016-12-31T00:45:26.725Z,17.69
2016-12-31T00:46:07.360Z,17.69
2016-12-31T00:46:47.994Z,17.55
2016-12-31T00:47:28.636Z,17.62
2016-12-31T00:48:09.263Z,17.63
2016-12-31T00:48:49.954Z,17.63
2016-12-31T00:49:30.584Z,17.66
2016-12-31T00:50:11.236Z,17.62
2016-12-31T00:50:51.898Z,17.62
2016-12-31T00:51:32.534Z,17.59
2016-12-31T00:52:13.221Z,17.64
2016-12-31T00:52:53.867Z,17.64
2016-12-31T00:53:34.495Z,17.62
2016-12-31T00:54:15.133Z,17.67
2016-12-31T00:54:55.765Z,17.66
2016-12-31T00:55:36.401Z,17.57
2016-12-31T00:56:17.040Z,17.57
2016-12-31T00:56:57.682Z,17.66
2016-12-31T00:57:38.328Z,17.66
2016-12-31T00:58:19.006Z,17.63
2016-12-31T00:58:59.652Z,17.55
2016-12-31T00:59:40.281Z,17.57
2016-12-31T01:00:20.912Z,17.62
2016-12-31T01:01:01.542Z,17.54
2016-12-31T01:01:42.180Z,17.64
2016-12-31T01:02:22.801Z,17.62
2016-12-31T01:03:03.453Z,17.55
2016-12-31T01:03:44.098Z,17.64
2016-12-31T01:04:24.733Z,17.57
2016-12-31T01:05:05.409Z,17.55
2016-12-31T01:05:46.049Z,17.54
2016-12-31T01:06:26.695Z,17.51
2016-12-31T01:07:07.354Z,17.54
2016-12-31T01:07:47.994Z,17.62
2016-12-31T01:08:28.624Z,17.57
2016-12-31T01:09:09.263Z,17.57
2016-12-31T01:09:49.910Z,17.55
2016-12-31T01:10:30.551Z,17.54
2016-12-31T01:11:11.197Z,17.59
2016-12-31T01:11:51.825Z,17.57
2016-12-31T01:12:32.470Z,17.64
2016-12-31T01:13:13.135Z,17.62
2016-12-31T01:13:53.773Z,17.63
2016-12-31T01:14:34.423Z,17.64
2016-12-31T01:15:15.053Z,17.66
2016-12-31T01:15:55.679Z,17.57
2016-12-31T01:16:36.322Z,17.54
2016-12-31T01:17:16.942Z,17.57
2016-12-31T01:17:57.571Z,17.59
2016-12-31T01:18:38.241Z,17.57
2016-12-31T01:19:18.904Z,17.55
2016-12-31T01:19:59.540Z,17.54
2016-12-31T01:20:40.192Z,17.55
2016-12-31T01:21:20.816Z,17.54
2016-12-31T01:22:01.447Z,17.57
2016-12-31T01:22:42.083Z,17.57
2016-12-31T01:23:22.712Z,17.55
2016-12-31T01:24:03.349Z,17.57
2016-12-31T01:24:44.001Z,17.54
2016-12-31T01:25:24.631Z,17.62
2016-12-31T01:26:05.257Z,17.57
2016-12-31T01:26:45.925Z,17.54
2016-12-31T01:27:26.570Z,17.57
2016-12-31T01:28:07.239Z,17.62
2016-12-31T01:28:47.884Z,17.59
2016-12-31T01:29:28.514Z,17.57
2016-12-31T01:30:09.166Z,17.53
2016-12-31T01:30:49.838Z,17.54
2016-12-31T01:31:30.468Z,17.57
2016-12-31T01:32:11.150Z,17.55
2016-12-31T01:32:51.786Z,17.54
2016-12-31T01:33:32.419Z,17.54
2016-12-31T01:34:13.087Z,17.55
2016-12-31T01:34:53.710Z,17.57
2016-12-31T01:35:34.342Z,17.57
2016-12-31T01:36:14.985Z,17.62
2016-12-31T01:36:56.432Z,17.55
2016-12-31T01:37:37.066Z,17.57
2016-12-31T01:38:17.695Z,17.57
2016-12-31T01:38:58.321Z,17.55
2016-12-31T01:39:38.953Z,17.55
2016-12-31T01:40:19.604Z,17.53
2016-12-31T01:41:00.235Z,17.48
2016-12-31T01:41:40.884Z,17.54
2016-12-31T01:42:21.515Z,17.47
2016-12-31T01:43:02.151Z,17.53
2016-12-31T01:43:42.831Z,17.54
2016-12-31T01:44:23.486Z,17.59
2016-12-31T01:45:04.096Z,17.54
2016-12-31T01:45:44.741Z,17.46
2016-12-31T01:46:25.365Z,17.5
2016-12-31T01:47:05.994Z,17.47
2016-12-31T01:47:46.637Z,17.5
2016-12-31T01:48:27.272Z,17.51
2016-12-31T01:49:07.897Z,17.5
2016-12-31T01:49:48.594Z,17.5
2016-12-31T01:50:29.236Z,17.59
2016-12-31T01:51:09.865Z,17.5
2016-12-31T01:51:50.599Z,17.47
2016-12-31T01:52:31.214Z,17.48
2016-12-31T01:53:11.841Z,17.44
2016-12-31T01:53:52.467Z,17.46
2016-12-31T01:54:33.105Z,17.5
2016-12-31T01:55:13.820Z,17.48
2016-12-31T01:55:54.574Z,17.46
2016-12-31T01:56:35.205Z,17.46
2016-12-31T01:57:15.851Z,17.48
2016-12-31T01:57:56.475Z,17.48
2016-12-31T01:58:37.127Z,17.47
2016-12-31T01:59:17.759Z,17.41
2016-12-31T01:59:58.393Z,17.46
2016-12-31T02:00:39.052Z,17.53
2016-12-31T02:01:19.704Z,17.48
2016-12-31T02:02:00.335Z,17.48
2016-12-31T02:02:40.981Z,17.46
2016-12-31T02:03:21.613Z,17.53
2016-12-31T02:04:02.253Z,17.5
2016-12-31T02:04:42.881Z,17.48
2016-12-31T02:05:23.508Z,17.46
2016-12-31T02:06:04.147Z,17.46
2016-12-31T02:06:44.768Z,17.44
2016-12-31T02:07:25.408Z,17.46
2016-12-31T02:08:06.035Z,17.46
2016-12-31T02:08:46.675Z,17.46
2016-12-31T02:09:27.305Z,17.44
2016-12-31T02:10:07.943Z,17.43
2016-12-31T02:10:48.569Z,17.4
2016-12-31T02:11:29.204Z,17.41
2016-12-31T02:12:09.835Z,17.4
2016-12-31T02:12:50.474Z,17.43
2016-12-31T02:13:31.102Z,17.46
2016-12-31T02:14:11.737Z,17.41
2016-12-31T02:14:52.372Z,17.38
2016-12-31T02:15:33.002Z,17.44
2016-12-31T02:16:13.640Z,17.44
2016-12-31T02:16:54.270Z,17.51
2016-12-31T02:17:34.910Z,17.41
2016-12-31T02:18:15.550Z,17.43
2016-12-31T02:18:56.193Z,17.47
2016-12-31T02:19:36.812Z,17.4
2016-12-31T02:20:17.434Z,17.41
2016-12-31T02:20:58.059Z,17.35
2016-12-31T02:21:38.690Z,17.4
2016-12-31T02:22:19.410Z,17.47
2016-12-31T02:23:00.039Z,17.36
2016-12-31T02:23:40.664Z,17.4
2016-12-31T02:24:21.371Z,17.38
2016-12-31T02:25:01.994Z,17.36
2016-12-31T02:25:42.624Z,17.4
2016-12-31T02:26:23.278Z,17.38
2016-12-31T02:27:03.922Z,17.4
2016-12-31T02:27:44.559Z,17.41
2016-12-31T02:28:25.234Z,17.47
2016-12-31T02:29:05.862Z,17.44
2016-12-31T02:29:46.504Z,17.38
2016-12-31T02:30:27.127Z,17.38
2016-12-31T02:31:07.754Z,17.4
2016-12-31T02:31:48.388Z,17.44
2016-12-31T02:32:29.033Z,17.43
2016-12-31T02:33:09.678Z,17.4
2016-12-31T02:33:50.317Z,17.41
2016-12-31T02:34:30.941Z,17.36
2016-12-31T02:35:11.612Z,17.38
2016-12-31T02:35:52.248Z,17.36
2016-12-31T02:36:32.882Z,17.36
2016-12-31T02:37:13.528Z,17.43
2016-12-31T02:37:54.171Z,17.38
2016-12-31T02:38:34.804Z,17.4
2016-12-31T02:39:15.489Z,17.35
2016-12-31T02:39:56.126Z,17.43
2016-12-31T02:40:36.764Z,17.44
2016-12-31T02:41:17.397Z,17.32
2016-12-31T02:41:58.026Z,17.4
2016-12-31T02:42:38.654Z,17.41
2016-12-31T02:43:19.285Z,17.35
2016-12-31T02:43:59.918Z,17.36
2016-12-31T02:44:40.549Z,17.46
2016-12-31T02:45:21.173Z,17.4
2016-12-31T02:46:01.807Z,17.36
2016-12-31T02:46:42.454Z,17.36
2016-12-31T02:47:23.107Z,17.32
2016-12-31T02:48:03.739Z,17.43
2016-12-31T02:48:44.372Z,17.38
2016-12-31T02:49:25.011Z,17.35
2016-12-31T02:50:05.651Z,17.35
2016-12-31T02:50:46.305Z,17.38
2016-12-31T02:51:26.941Z,17.4
2016-12-31T02:52:07.585Z,17.38
2016-12-31T02:52:48.223Z,17.41
2016-12-31T02:53:28.909Z,17.35
2016-12-31T02:54:09.546Z,17.43
2016-12-31T02:54:50.218Z,17.38
2016-12-31T02:55:30.877Z,17.38
2016-12-31T02:56:11.506Z,17.33
2016-12-31T02:56:52.195Z,17.36
2016-12-31T02:57:32.860Z,17.4
2016-12-31T02:58:13.505Z,17.33
2016-12-31T02:58:54.129Z,17.36
2016-12-31T02:59:34.778Z,17.35
2016-12-31T03:00:15.414Z,17.41
2016-12-31T03:00:56.042Z,17.35
2016-12-31T03:01:36.683Z,17.41
2016-12-31T03:02:17.310Z,17.32
2016-12-31T03:02:57.942Z,17.36
2016-12-31T03:03:38.568Z,17.4
2016-12-31T03:04:19.193Z,17.33
2016-12-31T03:04:59.826Z,17.36
2016-12-31T03:05:40.459Z,17.3
2016-12-31T03:06:21.090Z,17.4
2016-12-31T03:07:01.737Z,17.35
2016-12-31T03:07:42.381Z,17.4
2016-12-31T03:08:23.010Z,17.41
2016-12-31T03:09:03.640Z,17.4
2016-12-31T03:09:44.255Z,17.25
2016-12-31T03:10:24.892Z,17.36
2016-12-31T03:11:05.528Z,17.32
2016-12-31T03:11:46.152Z,17.26
2016-12-31T03:12:26.779Z,17.26
2016-12-31T03:13:07.415Z,17.28
2016-12-31T03:13:48.055Z,17.35
2016-12-31T03:14:28.689Z,17.3
2016-12-31T03:15:09.335Z,17.36
2016-12-31T03:15:49.970Z,17.35
2016-12-31T03:16:30.601Z,17.38
2016-12-31T03:17:11.258Z,17.29
2016-12-31T03:17:51.889Z,17.26
2016-12-31T03:18:32.516Z,17.28
2016-12-31T03:19:13.148Z,17.3
2016-12-31T03:19:53.819Z,17.33
2016-12-31T03:20:34.449Z,17.35
2016-12-31T03:21:15.094Z,17.26
2016-12-31T03:21:55.718Z,17.26
2016-12-31T03:22:36.353Z,17.29
2016-12-31T03:23:16.989Z,17.25
2016-12-31T03:23:57.605Z,17.26
2016-12-31T03:24:38.231Z,17.25
2016-12-31T03:25:18.865Z,17.29
2016-12-31T03:25:59.503Z,17.28
2016-12-31T03:26:40.122Z,17.29
2016-12-31T03:27:20.763Z,17.33
2016-12-31T03:28:01.388Z,17.26
2016-12-31T03:28:42.030Z,17.29
2016-12-31T03:29:22.676Z,17.33
2016-12-31T03:30:03.320Z,17.28
2016-12-31T03:30:43.943Z,17.17
2016-12-31T03:31:24.603Z,17.32
2016-12-31T03:32:05.236Z,17.28
2016-12-31T03:32:45.865Z,17.26
2016-12-31T03:33:26.545Z,17.26
2016-12-31T03:34:07.165Z,17.28
2016-12-31T03:34:47.806Z,17.32
2016-12-31T03:35:28.496Z,17.29
2016-12-31T03:36:09.129Z,17.2
2016-12-31T03:36:49.757Z,17.22
2016-12-31T03:37:30.459Z,17.23
2016-12-31T03:38:11.083Z,17.2
2016-12-31T03:38:51.718Z,17.14
2016-12-31T03:39:32.415Z,17.29
2016-12-31T03:40:13.043Z,17.25
2016-12-31T03:40:53.670Z,17.35
2016-12-31T03:41:34.328Z,17.25
2016-12-31T03:42:14.970Z,17.29
2016-12-31T03:42:55.602Z,17.23
2016-12-31T03:43:36.272Z,17.25
2016-12-31T03:44:16.905Z,17.2
2016-12-31T03:44:57.534Z,17.3
2016-12-31T03:45:38.167Z,17.26
2016-12-31T03:46:18.790Z,17.18
2016-12-31T03:46:59.408Z,17.32
2016-12-31T03:47:40.065Z,17.17
2016-12-31T03:48:20.697Z,17.23
2016-12-31T03:49:01.334Z,17.15
2016-12-31T03:49:41.972Z,17.22
2016-12-31T03:50:22.629Z,17.22
2016-12-31T03:51:03.259Z,17.17
2016-12-31T03:51:43.881Z,17.25
2016-12-31T03:52:24.568Z,17.29
2016-12-31T03:53:05.221Z,17.18
2016-12-31T03:53:45.867Z,17.22
2016-12-31T03:54:26.520Z,17.25
2016-12-31T03:55:07.144Z,17.17
2016-12-31T03:55:47.763Z,17.2
2016-12-31T03:56:28.388Z,17.18
2016-12-31T03:57:09.021Z,17.2
2016-12-31T03:57:49.658Z,17.22
2016-12-31T03:58:30.294Z,17.2
2016-12-31T03:59:10.956Z,17.2
2016-12-31T03:59:51.596Z,17.22
2016-12-31T04:00:32.231Z,17.15
2016-12-31T04:01:12.861Z,17.23
2016-12-31T04:01:53.498Z,17.25
2016-12-31T04:02:34.136Z,17.22
2016-12-31T04:03:14.798Z,17.22
2016-12-31T04:03:55.421Z,17.23
2016-12-31T04:04:36.150Z,17.14
2016-12-31T04:05:16.781Z,17.2
2016-12-31T04:05:57.413Z,17.18
2016-12-31T04:06:38.064Z,17.17
2016-12-31T04:07:18.704Z,17.17
2016-12-31T04:07:59.333Z,17.2
2016-12-31T04:08:39.984Z,17.15
2016-12-31T04:09:20.610Z,17.14
2016-12-31T04:10:01.241Z,17.11
2016-12-31T04:10:41.962Z,17.13
2016-12-31T04:11:22.595Z,17.17
2016-12-31T04:12:03.223Z,17.22
2016-12-31T04:12:43.856Z,17.1
2016-12-31T04:13:24.500Z,17.11
2016-12-31T04:14:05.144Z,17.11
2016-12-31T04:14:45.854Z,17.22
2016-12-31T04:15:26.480Z,17.1
2016-12-31T04:16:07.108Z,17.1
2016-12-31T04:16:48.518Z,17.15
2016-12-31T04:17:29.148Z,17.13
2016-12-31T04:18:09.796Z,17.11
2016-12-31T04:18:50.423Z,17.13
2016-12-31T04:19:31.047Z,17.17
2016-12-31T04:20:11.674Z,17.15
2016-12-31T04:20:52.303Z,17.14
2016-12-31T04:21:32.927Z,17.17
2016-12-31T04:22:13.606Z,17.1
2016-12-31T04:22:54.233Z,17.14
2016-12-31T04:23:34.858Z,17.11
2016-12-31T04:24:15.490Z,17.14
2016-12-31T04:24:56.126Z,17.11
2016-12-31T04:25:36.782Z,17.11
2016-12-31T04:26:17.416Z,17.14
2016-12-31T04:26:58.053Z,17.14
2016-12-31T04:27:38.687Z,17.14
2016-12-31T04:28:19.318Z,17.13
2016-12-31T04:28:59.945Z,17.17
2016-12-31T04:29:40.585Z,17.1
2016-12-31T04:30:21.242Z,17.13
2016-12-31T04:31:01.854Z,17.14
2016-12-31T04:31:42.548Z,17.15
2016-12-31T04:32:23.286Z,17.18
2016-12-31T04:33:03.915Z,17.17
2016-12-31T04:33:44.538Z,17.14
2016-12-31T04:34:25.171Z,17.06
2016-12-31T04:35:05.843Z,17.17
2016-12-31T04:35:46.486Z,17.1
2016-12-31T04:36:27.114Z,17.15
2016-12-31T04:37:07.748Z,17.13
2016-12-31T04:37:48.382Z,17.13
2016-12-31T04:38:29.008Z,17.11
2016-12-31T04:39:09.697Z,17.13
2016-12-31T04:39:50.347Z,17.15
2016-12-31T04:40:30.976Z,17.13
2016-12-31T04:41:11.599Z,17.13
2016-12-31T04:41:52.236Z,17.13
2016-12-31T04:42:32.872Z,17.13
2016-12-31T04:43:13.509Z,17.17
2016-12-31T04:43:54.144Z,17.07
2016-12-31T04:44:34.777Z,17.2
2016-12-31T04:45:15.418Z,17.14
2016-12-31T04:45:56.055Z,17.15
2016-12-31T04:46:36.711Z,17.17
2016-12-31T04:47:17.362Z,17.14
2016-12-31T04:47:57.996Z,17.13
2016-12-31T04:48:38.624Z,17.15
2016-12-31T04:49:19.343Z,17.14
2016-12-31T04:49:59.973Z,17.06
2016-12-31T04:50:40.604Z,17.13
2016-12-31T04:51:21.330Z,17.11
2016-12-31T04:52:01.957Z,17.1
2016-12-31T04:52:42.615Z,17.1
2016-12-31T04:53:23.238Z,17.11
2016-12-31T04:54:03.864Z,17.1
2016-12-31T04:54:44.488Z,17.11
2016-12-31T04:55:25.182Z,17.06
2016-12-31T04:56:05.814Z,17.03
2016-12-31T04:56:46.447Z,16.98
2016-12-31T04:57:27.187Z,17.08
2016-12-31T04:58:07.821Z,17.06
2016-12-31T04:58:48.465Z,17.07
2016-12-31T04:59:29.132Z,17.07
2016-12-31T05:00:09.762Z,17.08
2016-12-31T05:00:50.407Z,17
2016-12-31T05:01:31.139Z,17.07
2016-12-31T05:02:11.756Z,17.06
2016-12-31T05:02:52.383Z,17.04
2016-12-31T05:03:33.045Z,17.1
2016-12-31T05:04:13.697Z,17.1
2016-12-31T05:04:54.345Z,17.04
2016-12-31T05:05:34.978Z,17.1
2016-12-31T05:06:15.602Z,17.03
2016-12-31T05:06:57.040Z,17.1
2016-12-31T05:07:37.665Z,17.04
2016-12-31T05:08:18.291Z,17.11
2016-12-31T05:08:58.912Z,17.07
2016-12-31T05:09:39.537Z,17.04
2016-12-31T05:10:20.187Z,17.04
2016-12-31T05:11:00.843Z,17.03
2016-12-31T05:11:41.472Z,17
2016-12-31T05:12:22.099Z,17.1
2016-12-31T05:13:02.854Z,17.08
2016-12-31T05:13:43.481Z,17.13
2016-12-31T05:14:24.202Z,17.08
2016-12-31T05:15:04.791Z,17.1
2016-12-31T05:15:45.408Z,17.08
2016-12-31T05:16:26.141Z,17.03
2016-12-31T05:17:06.782Z,17.04
2016-12-31T05:17:47.408Z,17.03
2016-12-31T05:18:28.066Z,16.99
2016-12-31T05:19:08.711Z,17.04
2016-12-31T05:19:49.342Z,17.08
2016-12-31T05:20:29.998Z,17.1
2016-12-31T05:21:10.635Z,17.06
2016-12-31T05:21:51.252Z,17.07
2016-12-31T05:22:31.941Z,17.11
2016-12-31T05:23:12.585Z,17.03
2016-12-31T05:23:53.205Z,17.06
2016-12-31T05:24:33.836Z,17.03
2016-12-31T05:25:14.468Z,17.08
2016-12-31T05:25:55.113Z,17.07
2016-12-31T05:26:35.755Z,17.06
2016-12-31T05:27:16.389Z,17.06
2016-12-31T05:27:57.019Z,16.99
2016-12-31T05:28:37.652Z,17.03
2016-12-31T05:29:18.288Z,17.06
2016-12-31T05:29:58.920Z,17.07
2016-12-31T05:30:39.555Z,17.03
2016-12-31T05:31:20.207Z,16.99
2016-12-31T05:32:00.836Z,17.03
2016-12-31T05:32:41.473Z,17
2016-12-31T05:33:22.116Z,17.03
2016-12-31T05:34:02.742Z,17.04
2016-12-31T05:34:43.381Z,17.06
2016-12-31T05:35:24.007Z,17.06
2016-12-31T05:36:04.629Z,16.98
2016-12-31T05:36:45.259Z,17.03
2016-12-31T05:37:25.890Z,17.04
2016-12-31T05:38:06.579Z,16.9
2016-12-31T05:38:47.241Z,16.9
2016-12-31T05:39:27.864Z,16.98
2016-12-31T05:40:08.551Z,17
2016-12-31T05:40:49.273Z,17.04
2016-12-31T05:41:29.917Z,16.95
2016-12-31T05:42:10.560Z,16.98
2016-12-31T05:42:51.257Z,16.88
2016-12-31T05:43:31.899Z,16.92
2016-12-31T05:44:12.530Z,16.96
2016-12-31T05:44:53.199Z,16.93
2016-12-31T05:45:33.824Z,16.99
2016-12-31T05:46:14.455Z,16.93
2016-12-31T05:46:55.104Z,16.96
2016-12-31T05:47:35.734Z,17.03
2016-12-31T05:48:16.375Z,16.9
2016-12-31T05:48:57.007Z,17
2016-12-31T05:49:37.667Z,16.95
2016-12-31T05:50:18.301Z,16.95
2016-12-31T05:50:58.938Z,17
2016-12-31T05:51:39.568Z,16.95
2016-12-31T05:52:20.276Z,16.93
2016-12-31T05:53:00.901Z,16.98
2016-12-31T05:53:41.547Z,16.95
2016-12-31T05:54:22.189Z,16.99
2016-12-31T05:55:02.819Z,17.06
2016-12-31T05:55:43.513Z,16.95
2016-12-31T05:56:24.089Z,16.96
2016-12-31T05:57:04.732Z,16.96
2016-12-31T05:57:45.443Z,16.95
2016-12-31T05:58:25.997Z,16.99
2016-12-31T05:59:06.631Z,16.95
2016-12-31T05:59:47.272Z,16.95
2016-12-31T06:00:27.905Z,16.93
2016-12-31T06:01:08.537Z,17.06
2016-12-31T06:01:49.163Z,16.93
2016-12-31T06:02:29.800Z,16.99
2016-12-31T06:03:10.433Z,16.95
2016-12-31T06:03:51.057Z,16.88
2016-12-31T06:04:31.692Z,16.86
2016-12-31T06:05:12.351Z,16.89
2016-12-31T06:05:52.989Z,17.04
2016-12-31T06:06:33.615Z,16.9
2016-12-31T06:07:14.307Z,17
2016-12-31T06:07:54.940Z,16.92
2016-12-31T06:08:35.572Z,16.93
2016-12-31T06:09:16.304Z,16.95
2016-12-31T06:09:56.932Z,16.93
2016-12-31T06:10:37.562Z,16.86
2016-12-31T06:11:18.198Z,16.93
2016-12-31T06:11:58.822Z,16.9
2016-12-31T06:12:39.479Z,16.92
2016-12-31T06:13:20.111Z,16.98
2016-12-31T06:14:00.730Z,16.93
2016-12-31T06:14:41.382Z,16.92
2016-12-31T06:15:21.992Z,16.89
2016-12-31T06:16:02.636Z,16.89
2016-12-31T06:16:43.281Z,16.93
2016-12-31T06:17:23.952Z,16.9
2016-12-31T06:18:04.584Z,16.92
2016-12-31T06:18:45.207Z,16.89
2016-12-31T06:19:25.835Z,17
2016-12-31T06:20:06.462Z,16.95
2016-12-31T06:20:47.105Z,16.89
2016-12-31T06:21:27.750Z,16.88
2016-12-31T06:22:08.381Z,16.88
2016-12-31T06:22:49.061Z,16.95
2016-12-31T06:23:29.690Z,16.93
2016-12-31T06:24:10.344Z,16.93
2016-12-31T06:24:50.981Z,16.88
2016-12-31T06:25:31.616Z,16.83
2016-12-31T06:26:12.292Z,16.95
2016-12-31T06:26:52.920Z,16.85
2016-12-31T06:27:33.542Z,16.88
2016-12-31T06:28:14.195Z,16.93
2016-12-31T06:28:54.848Z,16.85
2016-12-31T06:29:35.483Z,16.9
2016-12-31T06:30:16.178Z,16.92
2016-12-31T06:30:56.821Z,16.93
2016-12-31T06:31:37.452Z,16.92
2016-12-31T06:32:18.102Z,16.9
2016-12-31T06:32:58.741Z,16.98
2016-12-31T06:33:39.368Z,16.92
2016-12-31T06:34:20.006Z,16.93
2016-12-31T06:35:00.646Z,16.9
2016-12-31T06:35:41.275Z,16.89
2016-12-31T06:36:21.906Z,16.89
2016-12-31T06:37:02.546Z,16.88
2016-12-31T06:37:43.177Z,16.88
2016-12-31T06:38:23.849Z,16.9
2016-12-31T06:39:04.497Z,16.89
2016-12-31T06:39:45.137Z,16.93
2016-12-31T06:40:25.780Z,16.89
2016-12-31T06:41:06.434Z,16.88
2016-12-31T06:41:47.064Z,16.88
2016-12-31T06:42:27.697Z,16.95
2016-12-31T06:43:08.327Z,16.9
2016-12-31T06:43:48.962Z,16.9
2016-12-31T06:44:29.607Z,16.92
2016-12-31T06:45:10.251Z,16.9
2016-12-31T06:45:50.889Z,16.88
2016-12-31T06:46:31.518Z,16.9
2016-12-31T06:47:12.153Z,16.9
2016-12-31T06:47:52.793Z,16.93
2016-12-31T06:48:33.423Z,16.93
2016-12-31T06:49:14.053Z,16.92
2016-12-31T06:49:54.683Z,16.9
2016-12-31T06:50:35.321Z,16.95
2016-12-31T06:51:15.945Z,16.9
2016-12-31T06:51:56.592Z,16.9
2016-12-31T06:52:37.238Z,16.93
2016-12-31T06:53:17.883Z,16.89
2016-12-31T06:53:58.653Z,16.88
2016-12-31T06:54:39.339Z,16.92
2016-12-31T06:55:19.968Z,16.92
2016-12-31T06:56:00.602Z,16.85
2016-12-31T06:56:41.230Z,16.9
2016-12-31T06:57:21.863Z,16.88
2016-12-31T06:58:02.505Z,16.85
2016-12-31T06:58:43.143Z,16.9
2016-12-31T06:59:23.774Z,16.89
2016-12-31T07:00:04.417Z,16.98
2016-12-31T07:00:45.057Z,16.88
2016-12-31T07:01:25.677Z,16.92
2016-12-31T07:02:06.309Z,16.93
2016-12-31T07:02:46.933Z,16.92
2016-12-31T07:03:27.574Z,16.95
2016-12-31T07:04:08.203Z,16.86
2016-12-31T07:04:48.860Z,16.92
2016-12-31T07:05:29.489Z,16.88
2016-12-31T07:06:10.134Z,16.9
2016-12-31T07:06:50.758Z,16.86
2016-12-31T07:07:31.392Z,16.89
2016-12-31T07:08:12.037Z,16.93
2016-12-31T07:08:52.673Z,16.86
2016-12-31T07:09:33.313Z,16.9
2016-12-31T07:10:13.936Z,16.92
2016-12-31T07:10:54.573Z,16.86
2016-12-31T07:11:35.207Z,16.89
2016-12-31T07:12:15.836Z,16.96
2016-12-31T07:12:56.480Z,16.95
2016-12-31T07:13:37.111Z,16.88
2016-12-31T07:14:17.733Z,16.89
2016-12-31T07:14:58.417Z,16.93
2016-12-31T07:15:39.038Z,16.9
2016-12-31T07:16:19.670Z,16.81
2016-12-31T07:17:00.293Z,16.8
2016-12-31T07:17:40.922Z,16.8
2016-12-31T07:18:21.548Z,16.89
2016-12-31T07:19:02.178Z,16.88
2016-12-31T07:19:42.801Z,16.86
2016-12-31T07:20:23.440Z,16.85
2016-12-31T07:21:04.080Z,16.92
2016-12-31T07:21:44.702Z,16.89
2016-12-31T07:22:25.327Z,16.85
2016-12-31T07:23:05.942Z,16.89
2016-12-31T07:23:46.566Z,16.85
2016-12-31T07:24:27.299Z,16.8
2016-12-31T07:25:07.926Z,16.86
2016-12-31T07:25:48.573Z,16.86
2016-12-31T07:26:29.223Z,16.88
2016-12-31T07:27:09.870Z,16.9
2016-12-31T07:27:50.488Z,16.85
2016-12-31T07:28:31.180Z,16.81
2016-12-31T07:29:11.815Z,16.83
2016-12-31T07:29:52.469Z,16.88
2016-12-31T07:30:33.706Z,16.8
2016-12-31T07:31:14.346Z,16.88
2016-12-31T07:31:54.972Z,16.88
2016-12-31T07:32:35.611Z,16.86
2016-12-31T07:33:16.259Z,16.9
2016-12-31T07:33:57.012Z,16.86
2016-12-31T07:34:37.669Z,16.81
2016-12-31T07:35:18.302Z,16.86
2016-12-31T07:35:58.938Z,16.86
2016-12-31T07:36:39.570Z,16.85
2016-12-31T07:37:20.198Z,16.81
2016-12-31T07:38:00.821Z,16.81
2016-12-31T07:38:41.452Z,16.8
2016-12-31T07:39:22.081Z,16.81
2016-12-31T07:40:02.736Z,16.86
2016-12-31T07:40:43.407Z,16.86
2016-12-31T07:41:24.032Z,16.86
2016-12-31T07:42:04.666Z,16.89
2016-12-31T07:42:45.335Z,16.9
2016-12-31T07:43:25.962Z,16.92
2016-12-31T07:44:06.597Z,16.88
2016-12-31T07:44:47.223Z,16.89
2016-12-31T07:45:27.857Z,16.81
2016-12-31T07:46:08.481Z,16.86
2016-12-31T07:46:49.118Z,16.8
2016-12-31T07:47:29.735Z,16.77
2016-12-31T07:48:10.384Z,16.78
2016-12-31T07:48:51.015Z,16.77
2016-12-31T07:49:31.663Z,16.78
2016-12-31T07:50:12.284Z,16.83
2016-12-31T07:50:52.946Z,16.86
2016-12-31T07:51:33.585Z,16.81
2016-12-31T07:52:14.224Z,16.78
2016-12-31T07:52:54.876Z,16.77
2016-12-31T07:53:35.506Z,16.8
2016-12-31T07:54:16.149Z,16.85
2016-12-31T07:54:56.783Z,16.86
2016-12-31T07:55:37.413Z,16.89
2016-12-31T07:56:18.058Z,16.8
2016-12-31T07:56:58.703Z,16.85
2016-12-31T07:57:39.328Z,16.8
2016-12-31T07:58:19.951Z,16.78
2016-12-31T07:59:00.582Z,16.73
2016-12-31T07:59:41.227Z,16.77
2016-12-31T08:00:21.878Z,16.83
2016-12-31T08:01:02.539Z,16.81
2016-12-31T08:01:43.177Z,16.78
2016-12-31T08:02:23.799Z,16.8
2016-12-31T08:03:04.427Z,16.81
2016-12-31T08:03:45.053Z,16.85
2016-12-31T08:04:25.741Z,16.81
2016-12-31T08:05:06.360Z,16.83
2016-12-31T08:05:46.992Z,16.8
2016-12-31T08:06:27.652Z,16.89
2016-12-31T08:07:08.308Z,16.88
2016-12-31T08:07:48.961Z,16.83
2016-12-31T08:08:29.610Z,16.9
2016-12-31T08:09:10.232Z,16.83
2016-12-31T08:09:50.888Z,16.83
2016-12-31T08:10:31.573Z,16.89
2016-12-31T08:11:12.194Z,16.88
2016-12-31T08:11:52.821Z,16.81
2016-12-31T08:12:33.481Z,16.85
2016-12-31T08:13:14.104Z,16.8
2016-12-31T08:13:54.736Z,16.8
2016-12-31T08:14:35.383Z,16.75
2016-12-31T08:15:16.011Z,16.77
2016-12-31T08:15:56.645Z,16.81
2016-12-31T08:16:37.354Z,16.78
2016-12-31T08:17:18.010Z,16.83
2016-12-31T08:17:58.645Z,16.9
2016-12-31T08:18:39.353Z,16.77
2016-12-31T08:19:19.969Z,16.81
2016-12-31T08:20:00.610Z,16.83
2016-12-31T08:20:41.279Z,16.8
2016-12-31T08:21:21.926Z,16.8
2016-12-31T08:22:02.581Z,16.75
2016-12-31T08:22:43.223Z,16.81
2016-12-31T08:23:23.866Z,16.78
2016-12-31T08:24:04.489Z,16.81
2016-12-31T08:24:45.180Z,16.8
2016-12-31T08:25:25.801Z,16.8
2016-12-31T08:26:06.476Z,16.75
2016-12-31T08:26:47.057Z,16.81
2016-12-31T08:27:27.682Z,16.81
2016-12-31T08:28:08.310Z,16.85
2016-12-31T08:28:48.935Z,16.78
2016-12-31T08:29:29.575Z,16.8
2016-12-31T08:30:10.204Z,16.86
2016-12-31T08:30:50.836Z,16.78
2016-12-31T08:31:31.489Z,16.75
2016-12-31T08:32:12.119Z,16.8
2016-12-31T08:32:52.758Z,16.81
2016-12-31T08:33:33.408Z,16.81
2016-12-31T08:34:14.032Z,16.78
2016-12-31T08:34:54.672Z,16.81
2016-12-31T08:35:35.304Z,16.89
2016-12-31T08:36:15.922Z,16.81
2016-12-31T08:36:56.550Z,16.78
2016-12-31T08:37:37.255Z,16.78
2016-12-31T08:38:17.877Z,16.85
2016-12-31T08:38:58.508Z,16.78
2016-12-31T08:39:39.190Z,16.83
2016-12-31T08:40:19.840Z,16.81
2016-12-31T08:41:00.489Z,16.81
2016-12-31T08:41:41.216Z,16.75
2016-12-31T08:42:21.848Z,16.83
2016-12-31T08:43:02.476Z,16.8
2016-12-31T08:43:43.131Z,16.85
2016-12-31T08:44:23.765Z,16.81
2016-12-31T08:45:04.401Z,16.8
2016-12-31T08:45:45.130Z,16.78